createdAt,value
2023-02-02T00:02:01.056Z,50.00
2023-02-02T00:04:35.179Z,49.90
2023-02-02T00:07:07.918Z,49.92
2023-02-02T00:09:37.813Z,50.88
2023-02-02T00:12:09.173Z,51.08
2023-02-02T00:14:39.403Z,51.88
2023-02-02T00:17:11.530Z,52.96
2023-02-02T00:19:43.782Z,52.60
2023-02-02T00:22:14.169Z,53.18
2023-02-02T00:24:44.482Z,52.69
2023-02-02T00:27:15.323Z,54.28
2023-02-02T00:29:46.357Z,53.03
2023-02-02T00:32:16.640Z,52.75
2023-02-02T00:34:49.857Z,53.14
2023-02-02T00:37:19.957Z,53.41
2023-02-02T00:39:50.596Z,54.61
2023-02-02T00:42:21.299Z,51.45
2023-02-02T00:45:09.406Z,51.20
2023-02-02T00:47:39.453Z,49.28
2023-02-02T00:50:15.009Z,49.49
2023-02-02T00:52:45.476Z,48.54
2023-02-02T00:55:17.556Z,49.93
2023-02-02T00:57:48.150Z,48.87
2023-02-02T01:00:21.184Z,48.84
2023-02-02T01:02:51.820Z,50.17
2023-02-02T01:05:25.060Z,49.46
2023-02-02T01:07:55.827Z,49.43
2023-02-02T01:10:26.794Z,49.54
2023-02-02T01:12:56.878Z,49.43
2023-02-02T01:15:27.539Z,48.65
2023-02-02T01:17:58.323Z,48.71
2023-02-02T01:20:29.894Z,47.55
2023-02-02T01:23:00.384Z,47.96
2023-02-02T01:25:32.852Z,47.60
2023-02-02T01:28:03.619Z,47.54
2023-02-02T01:30:33.769Z,47.34
2023-02-02T01:33:04.345Z,47.98
2023-02-02T01:35:36.781Z,48.87
2023-02-02T01:38:06.829Z,48.59
2023-02-02T01:40:37.229Z,48.83
2023-02-02T01:43:22.703Z,48.34
2023-02-02T01:45:53.342Z,48.56
2023-02-02T01:48:34.363Z,48.74
2023-02-02T01:51:08.807Z,48.69
2023-02-02T01:53:38.935Z,49.08
2023-02-02T01:56:11.274Z,47.93
2023-02-02T01:58:44.143Z,48.43
2023-02-02T02:01:14.556Z,49.08
2023-02-02T02:03:44.842Z,49.53
2023-02-02T02:06:19.934Z,49.83
2023-02-02T02:08:54.816Z,48.97
2023-02-02T02:11:26.675Z,49.77
2023-02-02T02:14:17.309Z,49.44
2023-02-02T02:16:58.148Z,50.08
2023-02-02T02:20:32.203Z,49.65
2023-02-02T02:23:52.348Z,49.59
2023-02-02T02:26:48.460Z,48.97
2023-02-02T02:29:54.391Z,49.95
2023-02-02T02:32:45.125Z,49.97
2023-02-02T02:35:22.618Z,49.54
2023-02-02T02:37:57.097Z,50.10
2023-02-02T02:40:31.544Z,50.50
2023-02-02T02:43:04.560Z,50.67
2023-02-02T02:45:35.387Z,50.03
2023-02-02T02:48:08.007Z,49.75
2023-02-02T02:50:38.678Z,50.19
2023-02-02T02:53:11.741Z,50.98
2023-02-02T02:55:50.673Z,50.46
2023-02-02T02:58:26.912Z,50.43
2023-02-02T03:01:02.838Z,50.02
2023-02-02T03:03:47.855Z,50.72
2023-02-02T03:06:24.951Z,50.08
2023-02-02T03:08:57.645Z,50.63
2023-02-02T03:11:27.780Z,51.03
2023-02-02T03:13:58.850Z,51.35
2023-02-02T03:16:29.457Z,50.96
2023-02-02T03:19:06.599Z,51.17
2023-02-02T03:21:37.873Z,50.83
2023-02-02T03:24:09.336Z,51.03
2023-02-02T03:26:41.488Z,52.00
2023-02-02T03:29:12.609Z,51.13
2023-02-02T03:31:43.415Z,50.21
2023-02-02T03:34:15.805Z,49.90
2023-02-02T03:36:46.427Z,50.05
2023-02-02T03:39:16.700Z,50.96
2023-02-02T03:41:47.157Z,50.38
2023-02-02T03:44:18.319Z,51.26
2023-02-02T03:46:48.587Z,50.87
2023-02-02T03:49:21.143Z,50.24
2023-02-02T03:51:51.465Z,50.00
2023-02-02T03:54:22.235Z,50.75
2023-02-02T03:56:52.118Z,51.02
2023-02-02T03:59:22.185Z,49.84
2023-02-02T04:01:53.144Z,51.22
2023-02-02T04:04:25.748Z,52.08
2023-02-02T04:06:55.758Z,52.10
2023-02-02T04:09:26.211Z,52.00
2023-02-02T04:11:58.100Z,50.40
2023-02-02T04:14:28.375Z,51.30
2023-02-02T04:16:59.473Z,51.59
2023-02-02T04:19:31.689Z,51.21
2023-02-02T04:22:01.681Z,52.13
2023-02-02T04:24:31.848Z,52.63
2023-02-02T04:27:02.229Z,51.87
2023-02-02T04:29:32.329Z,52.09
2023-02-02T04:32:02.167Z,51.29
2023-02-02T04:34:35.385Z,52.27
2023-02-02T04:37:05.002Z,51.53
2023-02-02T04:39:35.099Z,51.65
2023-02-02T04:42:07.458Z,50.48
2023-02-02T04:44:39.005Z,50.57
2023-02-02T04:47:09.123Z,52.15
2023-02-02T04:49:41.235Z,52.40
2023-02-02T04:52:13.927Z,52.43
2023-02-02T04:54:44.297Z,52.55
2023-02-02T04:57:14.879Z,52.03
2023-02-02T04:59:45.966Z,54.87
2023-02-02T05:02:18.005Z,58.32
2023-02-02T05:04:51.219Z,59.10
2023-02-02T05:07:21.802Z,59.74
2023-02-02T05:09:51.782Z,61.80
2023-02-02T05:12:22.166Z,62.57
2023-02-02T05:14:52.531Z,63.69
2023-02-02T05:17:22.943Z,64.73
2023-02-02T05:19:55.149Z,64.93
2023-02-02T05:22:26.218Z,66.40
2023-02-02T05:24:57.711Z,66.98
2023-02-02T05:27:28.413Z,68.61
2023-02-02T05:29:58.884Z,69.77
2023-02-02T05:32:30.277Z,71.56
2023-02-02T05:35:02.965Z,70.43
2023-02-02T05:37:33.741Z,71.67
2023-02-02T05:40:04.980Z,72.79
2023-02-02T05:42:35.992Z,73.71
2023-02-02T05:45:09.872Z,73.10
2023-02-02T05:47:40.323Z,73.07
2023-02-02T05:50:13.755Z,74.43
2023-02-02T05:52:45.596Z,73.94
2023-02-02T05:55:16.257Z,73.99
2023-02-02T05:57:46.333Z,76.81
2023-02-02T06:00:17.708Z,81.51
2023-02-02T06:02:47.916Z,79.62
2023-02-02T06:05:20.158Z,79.92
2023-02-02T06:07:50.636Z,80.47
2023-02-02T06:10:21.518Z,79.32
2023-02-02T06:12:52.156Z,79.56
2023-02-02T06:15:23.169Z,77.25
2023-02-02T06:17:54.298Z,81.22
2023-02-02T06:20:30.295Z,82.19
2023-02-02T06:23:00.156Z,80.21
2023-02-02T06:25:30.948Z,79.14
2023-02-02T06:28:03.164Z,81.19
2023-02-02T06:30:34.666Z,85.06
2023-02-02T06:33:05.134Z,84.45
2023-02-02T06:35:41.169Z,84.59
2023-02-02T06:38:11.990Z,87.03
2023-02-02T06:40:42.208Z,84.63
2023-02-02T06:43:15.467Z,87.73
2023-02-02T06:45:45.482Z,86.64
2023-02-02T06:48:17.385Z,85.44
2023-02-02T06:50:49.728Z,87.86
2023-02-02T06:53:23.574Z,87.16
2023-02-02T06:56:01.406Z,87.57
2023-02-02T06:58:32.531Z,86.73
2023-02-02T07:01:10.213Z,85.02
2023-02-02T07:03:42.731Z,88.85
2023-02-02T07:06:20.345Z,88.99
2023-02-02T07:09:01.558Z,89.76
2023-02-02T07:11:40.750Z,92.00
2023-02-02T07:14:14.994Z,86.22
2023-02-02T07:16:49.570Z,90.22
2023-02-02T07:19:19.891Z,87.90
2023-02-02T07:21:51.654Z,85.82
2023-02-02T07:24:22.225Z,84.16
2023-02-02T07:26:52.853Z,86.10
2023-02-02T07:29:23.326Z,88.65
2023-02-02T07:31:57.110Z,88.45
2023-02-02T07:34:28.458Z,89.49
2023-02-02T07:37:01.493Z,91.18
2023-02-02T07:39:36.416Z,90.54
2023-02-02T07:42:09.124Z,89.74
2023-02-02T07:44:39.636Z,88.11
2023-02-02T07:47:11.879Z,89.80
2023-02-02T07:49:41.919Z,91.21
2023-02-02T07:52:13.704Z,92.81
2023-02-02T07:54:44.985Z,93.63
2023-02-02T07:57:20.460Z,93.08
2023-02-02T07:59:50.616Z,91.91
2023-02-02T08:02:29.639Z,91.25
2023-02-02T08:05:00.163Z,94.69
2023-02-02T08:07:36.997Z,95.00
2023-02-02T08:10:08.057Z,87.83
2023-02-02T08:12:38.889Z,90.49
2023-02-02T08:15:12.636Z,89.41
2023-02-02T08:17:50.515Z,91.27
2023-02-02T08:20:21.263Z,90.90
2023-02-02T08:22:53.599Z,89.13
2023-02-02T08:25:24.566Z,87.91
2023-02-02T08:27:58.693Z,91.51
2023-02-02T08:30:29.069Z,90.10
2023-02-02T08:33:00.159Z,93.07
2023-02-02T08:35:36.982Z,93.12
2023-02-02T08:38:09.698Z,92.77
2023-02-02T08:40:50.733Z,90.47
2023-02-02T08:43:25.765Z,93.14
2023-02-02T08:46:01.207Z,94.23
2023-02-02T08:48:35.606Z,93.74
2023-02-02T08:51:09.598Z,93.40
2023-02-02T08:53:41.599Z,90.31
2023-02-02T08:56:13.965Z,90.16
2023-02-02T08:58:48.355Z,89.96
2023-02-02T09:01:21.206Z,91.07
2023-02-02T09:03:54.657Z,89.12
2023-02-02T09:06:29.979Z,91.02
2023-02-02T09:09:01.935Z,90.83
2023-02-02T09:11:33.282Z,89.66
2023-02-02T09:14:06.769Z,89.05
2023-02-02T09:16:38.512Z,89.18
2023-02-02T09:19:14.139Z,94.40
2023-02-02T09:21:44.586Z,89.07
2023-02-02T09:24:16.885Z,90.26
2023-02-02T09:26:48.170Z,91.84
2023-02-02T09:29:21.019Z,92.19
2023-02-02T09:31:52.775Z,90.21
2023-02-02T09:34:23.834Z,93.35
2023-02-02T09:36:55.099Z,94.24
2023-02-02T09:39:28.318Z,94.26
2023-02-02T09:42:10.103Z,92.99
2023-02-02T09:45:05.416Z,98.03
2023-02-02T09:47:51.954Z,94.89
2023-02-02T09:50:40.183Z,95.54
2023-02-02T09:53:16.802Z,93.55
2023-02-02T09:55:51.435Z,93.39
2023-02-02T09:58:24.070Z,99.06
2023-02-02T10:00:58.640Z,96.12
2023-02-02T10:03:36.045Z,96.58
2023-02-02T10:06:13.859Z,96.58
2023-02-02T10:08:48.028Z,97.51
2023-02-02T10:11:35.338Z,96.24
2023-02-02T10:14:21.105Z,99.81
2023-02-02T10:16:53.848Z,96.79
2023-02-02T10:19:29.435Z,97.58
2023-02-02T10:22:07.017Z,97.60
2023-02-02T10:24:42.319Z,98.08
2023-02-02T10:27:17.298Z,96.26
2023-02-02T10:29:53.900Z,100.00
2023-02-02T10:32:37.202Z,94.67
2023-02-02T10:35:23.349Z,100.00
2023-02-02T10:38:00.962Z,99.67
2023-02-02T10:40:45.655Z,100.00
2023-02-02T10:43:50.435Z,98.65
2023-02-02T10:46:26.752Z,100.00
2023-02-02T10:49:12.804Z,92.39
2023-02-02T10:51:44.178Z,92.43
2023-02-02T10:54:50.024Z,97.97
2023-02-02T10:57:35.172Z,97.24
2023-02-02T11:00:22.323Z,96.23
2023-02-02T11:02:53.949Z,100.00
2023-02-02T11:05:59.811Z,100.00
2023-02-02T11:08:35.548Z,100.00
2023-02-02T11:11:14.554Z,96.42
2023-02-02T11:13:48.595Z,100.00
2023-02-02T11:16:38.809Z,100.00
2023-02-02T11:19:29.995Z,100.00
2023-02-02T11:22:01.804Z,100.00
2023-02-02T11:24:37.217Z,100.00
2023-02-02T11:27:16.104Z,100.00
2023-02-02T11:29:49.891Z,100.00
2023-02-02T11:32:28.150Z,100.00
2023-02-02T11:35:21.141Z,95.53
2023-02-02T11:38:10.890Z,99.26
2023-02-02T11:40:44.679Z,94.86
2023-02-02T11:43:21.351Z,97.71
2023-02-02T11:46:02.593Z,98.12
2023-02-02T11:48:39.645Z,96.21
2023-02-02T11:51:13.278Z,97.25
2023-02-02T11:53:49.421Z,95.46
2023-02-02T11:56:22.361Z,96.80
2023-02-02T11:58:55.829Z,99.04
2023-02-02T12:01:30.539Z,97.84
2023-02-02T12:04:25.869Z,97.50
2023-02-02T12:06:57.299Z,100.00
2023-02-02T12:09:28.923Z,100.00
2023-02-02T12:12:04.085Z,92.40
2023-02-02T12:14:40.653Z,96.05
2023-02-02T12:17:24.149Z,93.66
2023-02-02T12:20:25.731Z,94.98
2023-02-02T12:23:27.039Z,94.61
2023-02-02T12:26:21.186Z,94.07
2023-02-02T12:29:02.257Z,96.41
2023-02-02T12:31:42.101Z,96.08
2023-02-02T12:34:18.258Z,91.94
2023-02-02T12:36:56.179Z,94.70
2023-02-02T12:39:36.468Z,96.12
2023-02-02T12:42:28.722Z,91.22
2023-02-02T12:45:25.365Z,89.59
2023-02-02T12:48:06.957Z,89.84
2023-02-02T12:50:43.568Z,93.15
2023-02-02T12:53:30.885Z,96.10
2023-02-02T12:56:06.448Z,96.32
2023-02-02T12:58:43.924Z,94.20
2023-02-02T13:01:26.933Z,93.42
2023-02-02T13:04:15.803Z,92.47
2023-02-02T13:07:28.893Z,92.33
2023-02-02T13:10:18.942Z,96.49
2023-02-02T13:12:54.717Z,91.78
2023-02-02T13:15:29.066Z,89.59
2023-02-02T13:18:01.892Z,93.71
2023-02-02T13:20:39.768Z,93.21
2023-02-02T13:23:13.947Z,92.25
2023-02-02T13:25:51.216Z,93.55
2023-02-02T13:28:34.814Z,90.38
2023-02-02T13:31:10.842Z,89.08
2023-02-02T13:33:42.933Z,91.77
2023-02-02T13:36:26.093Z,91.39
2023-02-02T13:38:59.484Z,90.95
2023-02-02T13:41:32.740Z,90.78
2023-02-02T13:44:07.641Z,89.80
2023-02-02T13:46:41.587Z,90.37
2023-02-02T13:49:17.933Z,95.73
2023-02-02T13:52:00.521Z,95.04
2023-02-02T13:55:16.054Z,92.74
2023-02-02T14:00:42.732Z,91.52
2023-02-02T14:03:29.880Z,91.06
2023-02-02T14:06:10.103Z,93.02
2023-02-02T14:08:47.616Z,91.63
2023-02-02T14:11:26.238Z,91.07
2023-02-02T14:14:18.631Z,92.27
2023-02-02T14:16:51.731Z,88.24
2023-02-02T14:19:49.981Z,91.27
2023-02-02T14:22:45.297Z,93.19
2023-02-02T14:25:55.828Z,89.89
2023-02-02T14:28:44.715Z,90.31
2023-02-02T14:31:43.547Z,88.43
2023-02-02T14:34:34.002Z,88.55
2023-02-02T14:37:22.635Z,89.23
2023-02-02T14:39:59.083Z,88.82
2023-02-02T14:42:51.680Z,91.57
2023-02-02T14:45:32.298Z,90.64
2023-02-02T14:48:05.298Z,90.28
2023-02-02T14:50:46.466Z,89.06
2023-02-02T14:53:24.634Z,87.83
2023-02-02T14:56:11.059Z,86.25
2023-02-02T14:58:44.164Z,87.05
2023-02-02T15:01:27.549Z,89.14
2023-02-02T15:04:20.121Z,92.28
2023-02-02T15:06:51.398Z,90.14
2023-02-02T15:09:40.726Z,93.34
2023-02-02T15:12:39.099Z,92.47
2023-02-02T15:15:19.291Z,90.57
2023-02-02T15:18:03.266Z,91.96
2023-02-02T15:20:40.274Z,89.46
2023-02-02T15:23:22.854Z,87.58
2023-02-02T15:25:56.027Z,86.96
2023-02-02T15:28:39.530Z,87.34
2023-02-02T15:31:17.642Z,87.81
2023-02-02T15:33:52.648Z,86.70
2023-02-02T15:36:27.339Z,84.70
2023-02-02T15:39:03.394Z,87.88
2023-02-02T15:41:36.050Z,85.96
2023-02-02T15:44:21.514Z,86.92
2023-02-02T15:46:52.751Z,86.80
2023-02-02T15:49:35.138Z,88.44
2023-02-02T15:52:17.143Z,90.59
2023-02-02T15:54:54.134Z,89.56
2023-02-02T15:57:33.628Z,89.52
2023-02-02T16:00:26.633Z,89.50
2023-02-02T16:03:02.054Z,89.85
2023-02-02T16:05:46.324Z,88.08
2023-02-02T16:08:22.208Z,89.63
2023-02-02T16:10:54.097Z,91.75
2023-02-02T16:13:29.052Z,90.95
2023-02-02T16:16:01.200Z,97.83
2023-02-02T16:18:43.198Z,94.19
2023-02-02T16:21:29.125Z,92.06
2023-02-02T16:24:03.844Z,91.68
2023-02-02T16:26:44.165Z,92.11
2023-02-02T16:29:17.704Z,92.27
2023-02-02T16:31:59.746Z,90.47
2023-02-02T16:34:52.814Z,94.36
2023-02-02T16:37:27.993Z,100.00
2023-02-02T16:40:15.577Z,100.00
2023-02-02T16:42:48.284Z,100.00
2023-02-02T16:45:37.164Z,100.00
2023-02-02T16:48:29.409Z,100.00
2023-02-02T16:51:29.008Z,98.83
2023-02-02T16:54:12.875Z,97.75
2023-02-02T16:56:52.259Z,100.00
2023-02-02T16:59:35.253Z,96.48
2023-02-02T17:02:29.894Z,100.00
2023-02-02T17:05:04.959Z,97.90
2023-02-02T17:07:39.600Z,97.35
2023-02-02T17:10:24.803Z,89.87
2023-02-02T17:12:56.531Z,91.17
2023-02-02T17:15:33.408Z,93.17
2023-02-02T17:18:06.404Z,93.55
2023-02-02T17:20:37.090Z,92.91
2023-02-02T17:23:10.965Z,95.02
2023-02-02T17:25:48.812Z,93.25
2023-02-02T17:28:23.993Z,94.27
2023-02-02T17:31:00.902Z,98.43
2023-02-02T17:33:33.993Z,99.75
2023-02-02T17:36:06.012Z,91.76
2023-02-02T17:38:36.499Z,92.98
2023-02-02T17:41:07.558Z,91.62
2023-02-02T17:43:42.885Z,89.80
2023-02-02T17:46:15.432Z,89.54
2023-02-02T17:48:46.796Z,91.09
2023-02-02T17:51:18.115Z,90.90
2023-02-02T17:53:48.519Z,90.53
2023-02-02T17:56:18.891Z,90.31
2023-02-02T17:58:51.679Z,89.96
2023-02-02T18:01:22.116Z,90.20
2023-02-02T18:03:52.799Z,92.17
2023-02-02T18:06:24.206Z,88.32
2023-02-02T18:08:55.114Z,91.48
2023-02-02T18:11:26.033Z,91.18
2023-02-02T18:13:57.401Z,90.29
2023-02-02T18:16:28.558Z,88.80
2023-02-02T18:18:59.228Z,88.42
2023-02-02T18:21:30.368Z,87.40
2023-02-02T18:24:04.698Z,86.15
2023-02-02T18:26:35.801Z,82.33
2023-02-02T18:29:08.215Z,84.93
2023-02-02T18:31:40.644Z,80.61
2023-02-02T18:34:13.015Z,77.32
2023-02-02T18:36:42.964Z,79.89
2023-02-02T18:39:13.768Z,83.03
2023-02-02T18:41:44.230Z,83.22
2023-02-02T18:44:17.577Z,80.51
2023-02-02T18:46:48.700Z,78.20
2023-02-02T18:49:19.074Z,80.51
2023-02-02T18:51:49.948Z,81.19
2023-02-02T18:54:20.269Z,82.32
2023-02-02T18:56:50.552Z,81.48
2023-02-02T18:59:23.169Z,81.94
2023-02-02T19:01:53.387Z,83.90
2023-02-02T19:04:24.166Z,83.46
2023-02-02T19:07:11.564Z,89.07
2023-02-02T19:09:41.715Z,84.64
2023-02-02T19:12:15.298Z,84.89
2023-02-02T19:14:47.799Z,81.93
2023-02-02T19:17:24.965Z,84.04
2023-02-02T19:19:55.293Z,83.63
2023-02-02T19:22:30.588Z,82.99
2023-02-02T19:25:01.363Z,83.55
2023-02-02T19:27:33.118Z,83.11
2023-02-02T19:30:06.267Z,82.01
2023-02-02T19:32:37.772Z,83.09
2023-02-02T19:35:21.831Z,85.43
2023-02-02T19:37:53.930Z,85.28
2023-02-02T19:40:27.002Z,83.34
2023-02-02T19:42:59.549Z,86.16
2023-02-02T19:45:34.739Z,85.24
2023-02-02T19:48:17.388Z,84.81
2023-02-02T19:50:48.763Z,83.38
2023-02-02T19:53:23.541Z,83.63
2023-02-02T19:55:54.330Z,85.16
2023-02-02T19:58:26.398Z,83.81
2023-02-02T20:01:07.034Z,86.33
2023-02-02T20:03:45.924Z,84.79
2023-02-02T20:06:22.636Z,82.92
2023-02-02T20:08:52.947Z,84.01
2023-02-02T20:11:32.540Z,85.55
2023-02-02T20:14:11.246Z,84.71
2023-02-02T20:16:45.738Z,85.77
2023-02-02T20:19:19.136Z,84.03
2023-02-02T20:21:52.393Z,86.63
2023-02-02T20:24:25.926Z,84.05
2023-02-02T20:26:57.728Z,85.11
2023-02-02T20:29:29.721Z,85.95
2023-02-02T20:32:01.957Z,86.68
2023-02-02T20:34:35.319Z,88.32
2023-02-02T20:37:18.449Z,87.84
2023-02-02T20:39:50.894Z,85.16
2023-02-02T20:42:21.602Z,88.06
2023-02-02T20:44:52.179Z,87.58
2023-02-02T20:47:24.910Z,85.53
2023-02-02T20:49:57.850Z,89.60
2023-02-02T20:52:31.358Z,93.41
2023-02-02T20:55:01.319Z,95.99
2023-02-02T20:57:32.973Z,92.95
2023-02-02T21:00:03.603Z,94.59
2023-02-02T21:02:36.148Z,89.98
2023-02-02T21:05:07.514Z,92.33
2023-02-02T21:07:37.991Z,92.70
2023-02-02T21:10:08.929Z,95.78
2023-02-02T21:12:39.104Z,95.86
2023-02-02T21:15:11.116Z,90.82
2023-02-02T21:17:44.376Z,92.35
2023-02-02T21:20:16.495Z,93.01
2023-02-02T21:22:46.467Z,93.49
2023-02-02T21:25:16.812Z,96.26
2023-02-02T21:27:47.650Z,95.42
2023-02-02T21:30:18.179Z,94.87
2023-02-02T21:32:51.014Z,89.86
2023-02-02T21:35:21.545Z,94.61
2023-02-02T21:37:55.903Z,95.59
2023-02-02T21:40:30.169Z,95.95
2023-02-02T21:43:02.154Z,95.49
2023-02-02T21:45:37.637Z,93.47
2023-02-02T21:48:25.528Z,98.56
2023-02-02T21:50:56.090Z,97.58
2023-02-02T21:53:27.178Z,95.40
2023-02-02T21:55:59.892Z,96.88
2023-02-02T21:58:36.162Z,90.00
2023-02-02T22:01:23.442Z,93.26
2023-02-02T22:03:56.140Z,95.09
2023-02-02T22:06:31.731Z,91.50
2023-02-02T22:09:08.462Z,100.00
2023-02-02T22:11:45.097Z,94.92
2023-02-02T22:14:22.816Z,94.03
2023-02-02T22:16:56.472Z,94.94
2023-02-02T22:19:34.504Z,94.35
2023-02-02T22:22:17.971Z,92.08
2023-02-02T22:24:53.564Z,93.25
2023-02-02T22:27:28.705Z,96.40
2023-02-02T22:30:02.655Z,94.05
2023-02-02T22:32:33.993Z,93.80
2023-02-02T22:35:06.119Z,92.32
2023-02-02T22:37:36.533Z,94.84
2023-02-02T22:40:07.214Z,94.95
2023-02-02T22:42:37.666Z,91.91
2023-02-02T22:45:08.537Z,92.01
2023-02-02T22:47:39.073Z,89.35
2023-02-02T22:50:12.980Z,92.99
2023-02-02T22:52:43.467Z,92.79
2023-02-02T22:55:14.776Z,92.03
2023-02-02T22:57:45.059Z,95.70
2023-02-02T23:00:17.919Z,94.17
2023-02-02T23:02:49.121Z,93.82
2023-02-02T23:05:22.896Z,95.06
2023-02-02T23:07:54.063Z,95.10
2023-02-02T23:10:26.885Z,95.76
2023-02-02T23:13:01.857Z,93.28
2023-02-02T23:15:32.927Z,89.92
2023-02-02T23:18:03.310Z,90.32
2023-02-02T23:20:36.033Z,93.03
2023-02-02T23:23:06.536Z,94.81
2023-02-02T23:25:37.462Z,99.51
2023-02-02T23:28:10.878Z,90.78
2023-02-02T23:30:41.204Z,88.61
2023-02-02T23:33:11.297Z,90.04
2023-02-02T23:35:43.641Z,90.05
2023-02-02T23:38:14.344Z,89.84
2023-02-02T23:40:44.750Z,89.83
2023-02-02T23:43:14.893Z,86.72
2023-02-02T23:45:45.237Z,91.20
2023-02-02T23:48:15.879Z,95.04
2023-02-02T23:50:47.999Z,90.72
2023-02-02T23:53:18.670Z,86.47
2023-02-02T23:55:50.507Z,91.08
2023-02-02T23:58:21.468Z,90.64
